Seiyu Maru — JD3189 — position and weather

sailwx.info

Track history (hours):
 
Tides and Currents Weather Stations Pressure Air Temp Water Temp Dewpoint Dewpoint Depression Visibility Wind Speed Wind Dir Waves Ship Positions

Seiyu Maru

Last reported at 2015-Jul-30 02:22 UTC. Time now 2015-Jul-31 01:03 UTC.
Position N 36°41' E 141°03'.

Length 75 m; draft 4.5 m.

Type: Cargo ship. MMSI: 431002433.

Date/timePositionNaut miles runAvg speedWind from/ knotsBaromVisibWave heightAir tempDewpointWater temp
2015-Jul-30 02:22N 36°41' E 141°03'1311.0
2015-Jul-30 01:14N 36°29' E 141°02'810.6
2015-Jul-30 00:29N 36°21' E 141°03'1010.5
2015-Jul-29 23:33N 36°11' E 141°03'1210.7
2015-Jul-29 22:27N 35°59' E 141°03'1211.1
2015-Jul-29 21:23N 35°47' E 141°01'910.6
2015-Jul-29 20:33N 35°39' E 140°60'1111.0
2015-Jul-29 19:33N 35°30' E 140°51'1211.3
2015-Jul-29 18:29N 35°20' E 140°43'1011.2
2015-Jul-29 17:33N 35°12' E 140°35'1110.8
2015-Jul-29 16:33N 35°05' E 140°25'1110.8
2015-Jul-29 15:32N 34°59' E 140°14'1111.7
2015-Jul-29 14:33N 34°54' E 140°01'1110.7
2015-Jul-29 13:30N 34°51' E 139°48'243 9.7
2015-Jul-28 12:29N 34°01' E 134°60'1010.6
2015-Jul-28 11:33N 34°11' E 134°59'10 9.2
2015-Jul-28 10:30N 34°21' E 134°60'1010.2
2015-Jul-28 09:33N 34°28' E 135°08'1111.1
2015-Jul-28 08:33N 34°35' E 135°19'6 5.6
2015-Jul-28 07:33N 34°38' E 135°25'0 0.0
2015-Jul-28 06:33N 34°38' E 135°25'0 0.0
2015-Jul-28 05:33N 34°38' E 135°25'0 0.0
2015-Jul-28 04:33N 34°38' E 135°25'0 0.0
2015-Jul-28 03:31N 34°38' E 135°25'0 0.0
2015-Jul-28 02:33N 34°38' E 135°25'0 0.0
2015-Jul-28 01:33N 34°38' E 135°25'0 0.0
2015-Jul-28 00:33N 34°38' E 135°25'0 0.0
2015-Jul-27 23:33N 34°38' E 135°25'3 2.9
2015-Jul-27 22:33N 34°35' E 135°27'1 0.1
2015-Jul-27 12:32N 34°35' E 135°27'0 0.0
2015-Jul-27 11:33N 34°35' E 135°27'6 5.9
2015-Jul-27 10:33N 34°35' E 135°20'1110.9
2015-Jul-27 09:33N 34°27' E 135°11'1311.8
2015-Jul-27 08:29N 34°16' E 135°03'4 4.1
2015-Jul-27 07:33N 34°15' E 135°07'0 0.0
2015-Jul-27 06:33N 34°15' E 135°07'0 0.0
2015-Jul-27 05:33N 34°15' E 135°07'0 0.0
2015-Jul-27 04:33N 34°15' E 135°07'0 0.0
2015-Jul-27 03:33N 34°15' E 135°07'0 0.0
2015-Jul-27 02:33N 34°15' E 135°07'0 0.0
2015-Jul-27 01:33N 34°15' E 135°07'0 0.0
2015-Jul-27 00:33N 34°15' E 135°07'0 0.0
2015-Jul-26 23:33N 34°15' E 135°07'0 0.0
2015-Jul-26 22:33N 34°15' E 135°07'0 0.0
2015-Jul-26 21:33N 34°15' E 135°07'0 0.0
2015-Jul-26 20:33N 34°15' E 135°07'0 0.1
2015-Jul-26 19:33N 34°15' E 135°07'0 0.0
2015-Jul-26 18:33N 34°15' E 135°07'0 0.0
2015-Jul-26 17:33N 34°15' E 135°07'0 0.0
2015-Jul-26 16:33N 34°15' E 135°07'0 0.0
2015-Jul-26 15:33N 34°15' E 135°07'0 0.4
2015-Jul-26 14:33N 34°14' E 135°07'0 0.1
2015-Jul-26 13:34N 34°14' E 135°07'0 0.0
2015-Jul-26 12:33N 34°14' E 135°07'0 0.0
2015-Jul-26 11:34N 34°14' E 135°07'0 0.0
2015-Jul-26 10:33N 34°14' E 135°07'0 0.0
2015-Jul-26 09:34N 34°14' E 135°07'0 0.1
2015-Jul-26 08:33N 34°14' E 135°07'7 6.4
2015-Jul-26 07:32N 34°21' E 135°06'1010.8
2015-Jul-26 06:33N 34°29' E 135°13'1111.4
2015-Jul-26 05:33N 34°38' E 135°23'4 3.5
2015-Jul-26 04:20N 34°39' E 135°28'0 0.0
2015-Jul-26 03:33N 34°39' E 135°28'0 0.0
2015-Jul-26 02:33N 34°39' E 135°28'0 0.0
2015-Jul-26 01:21N 34°39' E 135°28'0 0.0
2015-Jul-26 00:33N 34°39' E 135°28'0 0.0
2015-Jul-25 23:33N 34°39' E 135°28'0 0.0
2015-Jul-25 22:27N 34°39' E 135°28'0 0.0
2015-Jul-25 21:33N 34°39' E 135°28'0 0.0
2015-Jul-25 20:33N 34°39' E 135°28'0 0.0
2015-Jul-25 19:33N 34°39' E 135°28'0 0.0
2015-Jul-25 18:33N 34°39' E 135°28'4 4.2
2015-Jul-25 17:33N 34°38' E 135°23'1111.1
2015-Jul-25 16:33N 34°35' E 135°10'1110.7
2015-Jul-25 15:30N 34°36' E 134°56'  
Track history (hours):
 
Tides and Currents Weather Stations Pressure Air Temp Water Temp Dewpoint Dewpoint Depression Visibility Wind Speed Wind Dir Waves Ship Positions

Seiyu Maru

Last reported at 2015-Jul-30 02:22 UTC. Time now 2015-Jul-31 01:03 UTC.
Position N 36°41' E 141°03'.

Length 75 m; draft 4.5 m.

Type: Cargo ship. MMSI: 431002433.

Date/timePositionNaut miles runAvg speedWind from/ knotsBaromVisibWave heightAir tempDewpointWater temp
2015-Jul-30 02:22N 36°41' E 141°03'1311.0
2015-Jul-30 01:14N 36°29' E 141°02'810.6
2015-Jul-30 00:29N 36°21' E 141°03'1010.5
2015-Jul-29 23:33N 36°11' E 141°03'1210.7
2015-Jul-29 22:27N 35°59' E 141°03'1211.1
2015-Jul-29 21:23N 35°47' E 141°01'910.6
2015-Jul-29 20:33N 35°39' E 140°60'1111.0
2015-Jul-29 19:33N 35°30' E 140°51'1211.3
2015-Jul-29 18:29N 35°20' E 140°43'1011.2
2015-Jul-29 17:33N 35°12' E 140°35'1110.8
2015-Jul-29 16:33N 35°05' E 140°25'1110.8
2015-Jul-29 15:32N 34°59' E 140°14'1111.7
2015-Jul-29 14:33N 34°54' E 140°01'1110.7
2015-Jul-29 13:30N 34°51' E 139°48'243 9.7
2015-Jul-28 12:29N 34°01' E 134°60'1010.6
2015-Jul-28 11:33N 34°11' E 134°59'10 9.2
2015-Jul-28 10:30N 34°21' E 134°60'1010.2
2015-Jul-28 09:33N 34°28' E 135°08'1111.1
2015-Jul-28 08:33N 34°35' E 135°19'6 5.6
2015-Jul-28 07:33N 34°38' E 135°25'0 0.0
2015-Jul-28 06:33N 34°38' E 135°25'0 0.0
2015-Jul-28 05:33N 34°38' E 135°25'0 0.0
2015-Jul-28 04:33N 34°38' E 135°25'0 0.0
2015-Jul-28 03:31N 34°38' E 135°25'0 0.0
2015-Jul-28 02:33N 34°38' E 135°25'0 0.0
2015-Jul-28 01:33N 34°38' E 135°25'0 0.0
2015-Jul-28 00:33N 34°38' E 135°25'0 0.0
2015-Jul-27 23:33N 34°38' E 135°25'3 2.9
2015-Jul-27 22:33N 34°35' E 135°27'1 0.1
2015-Jul-27 12:32N 34°35' E 135°27'0 0.0
2015-Jul-27 11:33N 34°35' E 135°27'6 5.9
2015-Jul-27 10:33N 34°35' E 135°20'1110.9
2015-Jul-27 09:33N 34°27' E 135°11'1311.8
2015-Jul-27 08:29N 34°16' E 135°03'4 4.1
2015-Jul-27 07:33N 34°15' E 135°07'0 0.0
2015-Jul-27 06:33N 34°15' E 135°07'0 0.0
2015-Jul-27 05:33N 34°15' E 135°07'0 0.0
2015-Jul-27 04:33N 34°15' E 135°07'0 0.0
2015-Jul-27 03:33N 34°15' E 135°07'0 0.0
2015-Jul-27 02:33N 34°15' E 135°07'0 0.0
2015-Jul-27 01:33N 34°15' E 135°07'0 0.0
2015-Jul-27 00:33N 34°15' E 135°07'0 0.0
2015-Jul-26 23:33N 34°15' E 135°07'0 0.0
2015-Jul-26 22:33N 34°15' E 135°07'0 0.0
2015-Jul-26 21:33N 34°15' E 135°07'0 0.0
2015-Jul-26 20:33N 34°15' E 135°07'0 0.1
2015-Jul-26 19:33N 34°15' E 135°07'0 0.0
2015-Jul-26 18:33N 34°15' E 135°07'0 0.0
2015-Jul-26 17:33N 34°15' E 135°07'0 0.0
2015-Jul-26 16:33N 34°15' E 135°07'0 0.0
2015-Jul-26 15:33N 34°15' E 135°07'0 0.4
2015-Jul-26 14:33N 34°14' E 135°07'0 0.1
2015-Jul-26 13:34N 34°14' E 135°07'0 0.0
2015-Jul-26 12:33N 34°14' E 135°07'0 0.0
2015-Jul-26 11:34N 34°14' E 135°07'0 0.0
2015-Jul-26 10:33N 34°14' E 135°07'0 0.0
2015-Jul-26 09:34N 34°14' E 135°07'0 0.1
2015-Jul-26 08:33N 34°14' E 135°07'7 6.4
2015-Jul-26 07:32N 34°21' E 135°06'1010.8
2015-Jul-26 06:33N 34°29' E 135°13'1111.4
2015-Jul-26 05:33N 34°38' E 135°23'4 3.5
2015-Jul-26 04:20N 34°39' E 135°28'0 0.0
2015-Jul-26 03:33N 34°39' E 135°28'0 0.0
2015-Jul-26 02:33N 34°39' E 135°28'0 0.0
2015-Jul-26 01:21N 34°39' E 135°28'0 0.0
2015-Jul-26 00:33N 34°39' E 135°28'0 0.0
2015-Jul-25 23:33N 34°39' E 135°28'0 0.0
2015-Jul-25 22:27N 34°39' E 135°28'0 0.0
2015-Jul-25 21:33N 34°39' E 135°28'0 0.0
2015-Jul-25 20:33N 34°39' E 135°28'0 0.0
2015-Jul-25 19:33N 34°39' E 135°28'0 0.0
2015-Jul-25 18:33N 34°39' E 135°28'4 4.2
2015-Jul-25 17:33N 34°38' E 135°23'1111.1
2015-Jul-25 16:33N 34°35' E 135°10'1110.7
2015-Jul-25 15:30N 34°36' E 134°56'  

Dump ship's entire track history